Forside
METAR-TAF:

METAR-TAF

Lufthavne :

Singapore Changi Airport

Singapore, Singapore

Breddekreds: 01-22N, længdekreds: 103-59E, højde: 5 m

Aktuelle vejr

Denne rapport blev lavet for 25 minutter siden, kl. 00:30 UTC
Vind 7 kt fra sydvest, varierende mellem syd og vest
Temperatur 27°C
Fugtighed 79%
Tryk 1010 hPa
Sigt 10 km eller mere
Nogle få skyer i en højde af 1700 ft, Cumulonimbus.
Brudte skyer i en højde af 15000 ft

METAR: WSSS 180030Z 22007KT 180V280 9999 FEW017CB BKN150 27/23 Q1010 NOSIG

Tid: 08:55 (00:55 UTC)

Vejrudsigter

Denne rapport blev lavet for 1 time og 55 minutter siden, kl. 23:00 UTC
Foreløbig gælder fra 18 på 00 UTC til 19 på 06 UTC
Vind 10 kt fra syd
Sigt 10 km eller mere
Nogle få skyer i en højde af 1500 ft
Spredte skyer i en højde af 2000 ft
Midlertidig
fra 18 på 00 UTC til 18 på 03 UTC
Sigt: 3000 m
Nogle få skyer i en højde af 1200 ft, Cumulonimbus.
Brudte skyer i en højde af 1500 ft
tordenbyger, regn

TAF: WSSS 172300Z 1800/1906 17010KT 9999 FEW015 SCT020 TEMPO 1800/1803 3000 TSRA FEW012CB BKN015

Vejrobservationer og prognoser fra mere end 4000 lufthavne (METAR og TAF).

De gule og røde prikker repræsenterer de meteorologiske stationer.

Flyt musen over at se navnet på stationen.

Så klik over at se vejr observationer og prognoser.

At skifte det kort: Klik på de grønne knapper med et sort kors for at zoome ind; på den grønne knap med en bindestreg for at zoome ud; eller på de grønne pile for tilstødende kort.


METAR-TAF: